createdAt,value
2018-11-04T00:00:26.238Z,8.30
2018-11-04T00:02:54.778Z,8.30
2018-11-04T00:05:23.005Z,8.30
2018-11-04T00:07:51.793Z,8.40
2018-11-04T00:10:20.095Z,8.40
2018-11-04T00:12:48.641Z,8.40
2018-11-04T00:15:17.005Z,8.40
2018-11-04T00:17:45.749Z,8.40
2018-11-04T00:20:15.310Z,8.40
2018-11-04T00:22:43.782Z,8.40
2018-11-04T00:25:13.206Z,8.40
2018-11-04T00:27:41.471Z,8.40
2018-11-04T00:35:07.342Z,8.60
2018-11-04T00:37:36.805Z,8.50
2018-11-04T00:40:05.288Z,8.50
2018-11-04T00:42:34.238Z,8.50
2018-11-04T00:45:03.369Z,8.50
2018-11-04T00:47:32.468Z,8.50
2018-11-04T00:50:03.027Z,8.50
2018-11-04T00:52:32.267Z,8.50
2018-11-04T00:55:01.010Z,8.50
2018-11-04T00:57:29.954Z,8.50
2018-11-04T00:59:58.808Z,8.50
2018-11-04T01:02:28.022Z,8.50
2018-11-04T01:04:57.155Z,8.50
2018-11-04T01:07:26.427Z,8.50
2018-11-04T01:09:55.322Z,8.50
2018-11-04T01:12:24.381Z,8.50
2018-11-04T01:14:53.296Z,8.50
2018-11-04T01:17:22.152Z,8.50
2018-11-04T01:19:51.426Z,8.50
2018-11-04T01:22:20.586Z,8.50
2018-11-04T01:24:49.348Z,8.50
2018-11-04T01:27:18.293Z,8.50
2018-11-04T01:29:47.514Z,8.50
2018-11-04T01:32:16.736Z,8.50
2018-11-04T01:34:45.663Z,8.50
2018-11-04T01:37:14.493Z,8.50
2018-11-04T01:39:43.584Z,8.50
2018-11-04T01:42:12.807Z,8.50
2018-11-04T01:44:41.810Z,8.50
2018-11-04T01:47:10.682Z,8.50
2018-11-04T01:49:39.883Z,8.50
2018-11-04T01:52:09.180Z,8.50
2018-11-04T01:54:38.021Z,8.50
2018-11-04T01:57:07.119Z,8.50
2018-11-04T01:59:36.107Z,8.50
2018-11-04T02:02:05.671Z,8.40
2018-11-04T02:04:33.754Z,8.40
2018-11-04T02:07:02.944Z,8.40
2018-11-04T02:09:31.650Z,8.40
2018-11-04T02:12:00.524Z,8.40
2018-11-04T02:14:29.339Z,8.40
2018-11-04T02:16:58.039Z,8.40
2018-11-04T02:19:27.727Z,8.40
2018-11-04T02:21:56.567Z,8.40
2018-11-04T02:24:25.736Z,8.40
2018-11-04T02:26:54.498Z,8.40
2018-11-04T02:29:23.641Z,8.40
2018-11-04T02:31:52.815Z,8.40
2018-11-04T02:34:22.134Z,8.40
2018-11-04T02:36:51.497Z,8.40
2018-11-04T02:39:20.521Z,8.40
2018-11-04T02:41:49.406Z,8.40
2018-11-04T02:44:18.280Z,8.40
2018-11-04T02:46:47.264Z,8.40
2018-11-04T02:49:16.354Z,8.40
2018-11-04T02:51:45.518Z,8.40
2018-11-04T02:54:14.467Z,8.40
2018-11-04T02:56:44.642Z,8.40
2018-11-04T02:59:13.687Z,8.40
2018-11-04T03:01:42.704Z,8.40
2018-11-04T03:04:11.954Z,8.40
2018-11-04T03:06:40.795Z,8.40
2018-11-04T03:09:10.282Z,8.40
2018-11-04T03:11:39.294Z,8.40
2018-11-04T03:14:08.324Z,8.40
2018-11-04T03:16:37.438Z,8.40
2018-11-04T03:19:06.753Z,8.40
2018-11-04T03:21:35.977Z,8.50
2018-11-04T03:24:05.021Z,8.50
2018-11-04T03:26:34.257Z,8.50
2018-11-04T03:29:03.376Z,8.50
2018-11-04T03:31:32.635Z,8.50
2018-11-04T03:34:01.670Z,8.50
2018-11-04T03:36:30.589Z,8.50
2018-11-04T03:38:59.918Z,8.50
2018-11-04T03:41:29.715Z,8.50
2018-11-04T03:43:58.826Z,8.50
2018-11-04T03:46:28.135Z,8.40
2018-11-04T03:48:57.967Z,8.40
2018-11-04T03:51:26.962Z,8.50
2018-11-04T03:53:56.878Z,8.40
2018-11-04T03:56:26.149Z,8.50
2018-11-04T03:58:55.372Z,8.50
2018-11-04T04:01:24.483Z,8.50
2018-11-04T04:03:53.909Z,8.50
2018-11-04T04:06:22.936Z,8.50
2018-11-04T04:08:53.092Z,8.50
2018-11-04T04:11:22.274Z,8.50
2018-11-04T04:13:51.300Z,8.50
2018-11-04T04:16:20.365Z,8.50
2018-11-04T04:18:49.601Z,8.50
2018-11-04T04:21:18.713Z,8.50
2018-11-04T04:23:47.998Z,8.50
2018-11-04T04:26:17.191Z,8.50
2018-11-04T04:28:46.487Z,8.50
2018-11-04T04:31:15.691Z,8.50
2018-11-04T04:33:44.740Z,8.50
2018-11-04T04:36:14.044Z,8.50
2018-11-04T04:38:43.287Z,8.50
2018-11-04T04:41:12.498Z,8.50
2018-11-04T04:43:41.617Z,8.50
2018-11-04T04:46:10.770Z,8.50
2018-11-04T04:48:39.817Z,8.50
2018-11-04T04:51:09.089Z,8.50
2018-11-04T04:53:38.204Z,8.50
2018-11-04T04:56:07.682Z,8.40
2018-11-04T04:58:35.897Z,8.40
2018-11-04T05:01:04.126Z,8.40
2018-11-04T05:03:33.393Z,8.40
2018-11-04T05:06:01.960Z,8.40
2018-11-04T05:08:31.405Z,8.40
2018-11-04T05:11:00.480Z,8.40
2018-11-04T05:13:29.803Z,8.40
2018-11-04T05:15:58.991Z,8.40
2018-11-04T05:18:28.709Z,8.40
2018-11-04T05:20:57.865Z,8.40
2018-11-04T05:23:26.919Z,8.40
2018-11-04T05:25:56.538Z,8.40
2018-11-04T05:28:25.644Z,8.40
2018-11-04T05:30:56.317Z,8.50
2018-11-04T05:33:25.586Z,8.50
2018-11-04T05:35:56.632Z,8.50
2018-11-04T05:38:26.080Z,8.50
2018-11-04T05:40:55.361Z,8.50
2018-11-04T05:43:25.211Z,8.50
2018-11-04T05:45:55.141Z,8.50
2018-11-04T05:48:24.304Z,8.50
2018-11-04T05:50:53.300Z,8.50
2018-11-04T05:53:22.432Z,8.50
2018-11-04T05:55:51.415Z,8.50
2018-11-04T05:58:20.475Z,8.50
2018-11-04T06:00:49.899Z,8.50
2018-11-04T06:03:19.221Z,8.50
2018-11-04T06:05:48.246Z,8.60
2018-11-04T06:08:17.338Z,8.60
2018-11-04T06:10:46.420Z,8.50
2018-11-04T06:13:15.418Z,8.60
2018-11-04T06:15:44.451Z,8.60
2018-11-04T06:18:14.004Z,8.60
2018-11-04T06:20:42.955Z,8.60
2018-11-04T06:23:12.746Z,8.60
2018-11-04T06:25:41.892Z,8.60
2018-11-04T06:28:10.981Z,8.70
2018-11-04T06:30:41.752Z,8.70
2018-11-04T06:33:11.337Z,8.70
2018-11-04T06:35:41.125Z,8.70
2018-11-04T06:38:10.429Z,8.70
2018-11-04T06:40:40.136Z,8.70
2018-11-04T06:43:09.325Z,8.70
2018-11-04T06:45:38.285Z,8.70
2018-11-04T06:48:09.038Z,8.70
2018-11-04T06:50:38.042Z,8.70
2018-11-04T06:53:07.252Z,8.80
2018-11-04T06:55:36.464Z,8.80
2018-11-04T06:58:06.318Z,8.80
2018-11-04T07:00:35.778Z,8.80
2018-11-04T07:03:05.293Z,8.80
2018-11-04T07:05:34.517Z,8.90
2018-11-04T07:08:03.882Z,8.90
2018-11-04T07:10:33.389Z,8.90
2018-11-04T07:13:03.212Z,8.90
2018-11-04T07:15:32.681Z,8.90
2018-11-04T07:18:01.800Z,9.00
2018-11-04T07:20:30.977Z,9.00
2018-11-04T07:23:00.511Z,9.10
2018-11-04T07:25:30.654Z,9.10
2018-11-04T07:27:59.531Z,9.10
2018-11-04T07:30:28.290Z,9.20
2018-11-04T07:32:57.070Z,9.20
2018-11-04T07:35:26.050Z,9.20
2018-11-04T07:37:54.960Z,9.20
2018-11-04T07:40:23.980Z,9.20
2018-11-04T07:42:52.851Z,9.30
2018-11-04T07:45:21.779Z,9.30
2018-11-04T07:47:51.009Z,9.30
2018-11-04T07:50:21.492Z,9.30
2018-11-04T07:52:50.701Z,9.40
2018-11-04T07:55:19.710Z,9.40
2018-11-04T07:57:48.706Z,9.40
2018-11-04T08:00:17.664Z,9.40
2018-11-04T08:02:48.247Z,9.50
2018-11-04T08:05:16.955Z,9.60
2018-11-04T08:07:46.283Z,9.60
2018-11-04T08:10:15.284Z,9.60
2018-11-04T08:12:44.071Z,9.70
2018-11-04T08:15:13.212Z,9.70
2018-11-04T08:17:41.940Z,9.70
2018-11-04T08:20:11.216Z,9.70
2018-11-04T08:22:40.607Z,9.80
2018-11-04T08:25:09.831Z,9.90
2018-11-04T08:27:38.619Z,9.90
2018-11-04T08:30:08.645Z,10.00
2018-11-04T08:32:37.823Z,10.00
2018-11-04T08:35:07.970Z,10.10
2018-11-04T08:37:36.966Z,10.20
2018-11-04T08:40:08.147Z,10.30
2018-11-04T08:42:37.120Z,10.30
2018-11-04T08:45:08.181Z,10.40
2018-11-04T08:47:37.563Z,10.40
2018-11-04T08:50:08.281Z,10.50
2018-11-04T08:52:37.383Z,10.50
2018-11-04T08:55:07.822Z,10.60
2018-11-04T08:57:37.262Z,10.60
2018-11-04T09:00:08.820Z,10.70
2018-11-04T09:02:37.525Z,10.70
2018-11-04T09:05:06.734Z,10.80
2018-11-04T09:07:35.697Z,10.80
2018-11-04T09:10:06.715Z,10.80
2018-11-04T09:12:35.686Z,10.80
2018-11-04T09:15:04.427Z,10.90
2018-11-04T09:17:33.245Z,10.90
2018-11-04T09:20:02.422Z,10.90
2018-11-04T09:22:31.579Z,10.90
2018-11-04T09:25:00.434Z,10.90
2018-11-04T09:27:29.920Z,11.00
2018-11-04T09:29:58.678Z,11.00
2018-11-04T09:32:27.397Z,11.10
2018-11-04T09:34:56.736Z,11.10
2018-11-04T09:37:25.626Z,11.10
2018-11-04T09:39:54.378Z,11.20
2018-11-04T09:42:23.150Z,11.20
2018-11-04T09:44:52.180Z,11.20
2018-11-04T09:47:21.305Z,11.30
2018-11-04T09:49:50.238Z,11.30
2018-11-04T09:52:19.545Z,11.30
2018-11-04T09:54:50.127Z,11.40
2018-11-04T09:57:20.573Z,11.40
2018-11-04T09:59:49.400Z,11.40
2018-11-04T10:02:18.316Z,11.50
2018-11-04T10:04:47.255Z,11.60
2018-11-04T10:07:16.695Z,11.60
2018-11-04T10:09:45.795Z,11.70
2018-11-04T10:12:14.783Z,11.70
2018-11-04T10:14:44.107Z,11.70
2018-11-04T10:17:12.853Z,11.80
2018-11-04T10:19:43.659Z,11.80
2018-11-04T10:22:12.909Z,11.80
2018-11-04T10:24:41.821Z,11.90
2018-11-04T10:27:10.682Z,11.90
2018-11-04T10:29:39.914Z,11.90
2018-11-04T10:32:08.690Z,11.90
2018-11-04T10:34:37.519Z,11.80
2018-11-04T10:37:06.855Z,11.80
2018-11-04T10:39:36.077Z,11.80
2018-11-04T10:42:06.114Z,11.80
2018-11-04T10:44:35.795Z,11.80
2018-11-04T10:47:07.970Z,11.80
2018-11-04T10:49:36.741Z,11.90
2018-11-04T10:52:05.443Z,11.90
2018-11-04T10:54:34.246Z,11.80
2018-11-04T10:57:03.015Z,11.90
2018-11-04T10:59:32.166Z,11.90
2018-11-04T11:02:01.250Z,11.90
2018-11-04T11:04:30.171Z,11.90
2018-11-04T11:06:59.998Z,12.00
2018-11-04T11:09:28.970Z,11.90
2018-11-04T11:11:57.552Z,12.00
2018-11-04T11:14:27.542Z,12.00
2018-11-04T11:16:56.196Z,12.00
2018-11-04T11:19:25.147Z,12.00
2018-11-04T11:21:53.657Z,12.10
2018-11-04T11:24:22.485Z,12.10
2018-11-04T11:26:51.180Z,12.10
2018-11-04T11:29:19.747Z,12.20
2018-11-04T11:31:48.374Z,12.30
2018-11-04T11:34:16.997Z,12.30
2018-11-04T11:36:45.590Z,12.30
2018-11-04T11:39:14.512Z,12.20
2018-11-04T11:41:57.581Z,12.30
2018-11-04T11:44:26.210Z,12.30
2018-11-04T11:46:54.713Z,12.30
2018-11-04T11:49:23.381Z,12.30
2018-11-04T11:51:51.999Z,12.30
2018-11-04T11:54:20.590Z,12.30
2018-11-04T11:56:49.199Z,12.20
2018-11-04T11:59:17.808Z,12.20
2018-11-04T12:01:46.403Z,12.30
2018-11-04T12:04:14.984Z,12.30
2018-11-04T12:06:43.508Z,12.40
2018-11-04T12:09:12.596Z,12.50
2018-11-04T12:11:41.140Z,12.60
2018-11-04T12:14:09.756Z,12.60
2018-11-04T12:16:39.623Z,12.70
2018-11-04T12:19:09.589Z,12.70
2018-11-04T12:21:38.638Z,12.60
2018-11-04T12:24:08.422Z,12.50
2018-11-04T12:26:37.051Z,12.50
2018-11-04T12:29:06.890Z,12.50
2018-11-04T12:31:35.699Z,12.40
2018-11-04T12:34:04.878Z,12.40
2018-11-04T12:36:33.532Z,12.40
2018-11-04T12:39:02.314Z,12.30
2018-11-04T12:41:31.051Z,12.30
2018-11-04T12:43:59.779Z,12.20
2018-11-04T12:46:28.464Z,12.20
2018-11-04T12:48:57.149Z,12.20
2018-11-04T12:51:26.697Z,12.10
2018-11-04T12:53:55.212Z,12.00
2018-11-04T12:56:24.874Z,12.00
2018-11-04T12:58:53.526Z,11.90
2018-11-04T13:01:22.187Z,11.90
2018-11-04T13:03:51.435Z,11.80
2018-11-04T13:06:20.342Z,11.80
2018-11-04T13:08:49.193Z,11.80
2018-11-04T13:11:18.903Z,11.80
2018-11-04T13:13:48.160Z,11.80
2018-11-04T13:16:17.652Z,11.80
2018-11-04T13:18:47.008Z,11.70
2018-11-04T13:21:16.717Z,11.70
2018-11-04T13:23:46.026Z,11.70
2018-11-04T13:26:15.430Z,11.60
2018-11-04T13:28:44.798Z,11.60
2018-11-04T13:31:14.457Z,11.60
2018-11-04T13:33:44.531Z,11.50
2018-11-04T13:36:13.733Z,11.50
2018-11-04T13:38:42.939Z,11.40
2018-11-04T13:41:12.050Z,11.40
2018-11-04T13:43:41.246Z,11.30
2018-11-04T13:46:10.761Z,11.30
2018-11-04T13:48:39.957Z,11.20
2018-11-04T13:51:10.321Z,11.20
2018-11-04T13:53:38.924Z,11.20
2018-11-04T13:56:07.603Z,11.20
2018-11-04T13:58:36.451Z,11.20
2018-11-04T14:01:05.173Z,11.10
2018-11-04T14:03:33.775Z,11.10
2018-11-04T14:06:02.350Z,11.00
2018-11-04T14:08:30.989Z,11.00
2018-11-04T14:10:59.561Z,11.00
2018-11-04T14:13:28.057Z,11.00
2018-11-04T14:15:56.647Z,10.90
2018-11-04T14:18:25.264Z,10.90
2018-11-04T14:20:53.820Z,10.90
2018-11-04T14:23:22.437Z,10.90
2018-11-04T14:25:51.029Z,10.80
2018-11-04T14:28:19.743Z,10.80
2018-11-04T14:30:48.439Z,10.80
2018-11-04T14:33:16.979Z,10.80
2018-11-04T14:35:45.496Z,10.80
2018-11-04T14:38:14.172Z,10.70
2018-11-04T14:40:43.259Z,10.70
2018-11-04T14:43:12.882Z,10.70
2018-11-04T14:45:42.013Z,10.60
2018-11-04T14:48:10.563Z,10.70
2018-11-04T14:50:40.483Z,10.60
2018-11-04T14:53:09.084Z,10.60
2018-11-04T14:55:37.640Z,10.50
2018-11-04T14:58:06.284Z,10.50
2018-11-04T15:00:36.699Z,10.50
2018-11-04T15:03:06.562Z,10.50
2018-11-04T15:05:35.145Z,10.50
2018-11-04T15:08:03.600Z,10.50
2018-11-04T15:10:32.172Z,10.50
2018-11-04T15:13:00.865Z,10.50
2018-11-04T15:15:29.417Z,10.50
2018-11-04T15:17:58.071Z,10.50
2018-11-04T15:20:26.788Z,10.40
2018-11-04T15:22:55.663Z,10.40
2018-11-04T15:25:24.276Z,10.40
2018-11-04T15:27:52.942Z,10.40
2018-11-04T15:30:21.854Z,10.40
2018-11-04T15:32:50.521Z,10.40
2018-11-04T15:35:19.443Z,10.40
2018-11-04T15:37:48.731Z,10.40
2018-11-04T15:40:17.782Z,10.30
2018-11-04T15:42:46.399Z,10.30
2018-11-04T15:45:15.887Z,10.30
2018-11-04T15:47:44.450Z,10.30
2018-11-04T15:50:17.570Z,10.30
2018-11-04T15:52:46.497Z,10.30
2018-11-04T15:55:15.648Z,10.30
2018-11-04T15:57:44.185Z,10.30
2018-11-04T16:00:14.341Z,10.30
2018-11-04T16:02:43.004Z,10.30
2018-11-04T16:05:12.520Z,10.20
2018-11-04T16:07:41.538Z,10.20
2018-11-04T16:10:11.791Z,10.20
2018-11-04T16:12:42.074Z,10.20
2018-11-04T16:15:13.610Z,10.10
2018-11-04T16:17:43.372Z,10.00
2018-11-04T16:20:14.730Z,10.00
2018-11-04T16:22:44.409Z,10.00
2018-11-04T16:25:14.142Z,9.90
2018-11-04T16:27:43.495Z,9.90
2018-11-04T16:30:13.250Z,9.90
2018-11-04T16:32:41.984Z,9.80
2018-11-04T16:35:12.006Z,9.80
2018-11-04T16:37:41.655Z,9.70
2018-11-04T16:40:10.915Z,9.70
2018-11-04T16:42:39.794Z,9.70
2018-11-04T16:45:10.759Z,9.60
2018-11-04T16:47:40.280Z,9.70
2018-11-04T16:50:11.344Z,9.70
2018-11-04T16:52:40.076Z,9.70
2018-11-04T16:55:09.731Z,9.70
2018-11-04T16:57:38.216Z,9.80
2018-11-04T17:00:07.972Z,9.80
2018-11-04T17:02:36.986Z,9.80
2018-11-04T17:05:06.297Z,9.80
2018-11-04T17:07:34.803Z,9.80
2018-11-04T17:10:03.626Z,9.80
2018-11-04T17:12:32.192Z,9.90
2018-11-04T17:15:00.874Z,9.90
2018-11-04T17:17:31.010Z,9.90
2018-11-04T17:19:59.650Z,9.90
2018-11-04T17:22:29.517Z,9.80
2018-11-04T17:24:58.185Z,9.90
2018-11-04T17:27:26.780Z,9.90
2018-11-04T17:29:56.718Z,9.90
2018-11-04T17:32:26.552Z,9.90
2018-11-04T17:34:57.978Z,9.90
2018-11-04T17:49:03.287Z,10.10
2018-11-04T17:57:19.473Z,10.20
2018-11-04T17:59:48.466Z,10.20
2018-11-04T18:02:17.392Z,10.20
2018-11-04T18:04:45.999Z,10.30
2018-11-04T18:07:14.626Z,10.30
2018-11-04T18:09:43.384Z,10.30
2018-11-04T18:12:12.783Z,10.30
2018-11-04T18:23:19.636Z,10.40
2018-11-04T18:25:49.812Z,10.40
2018-11-04T18:28:19.615Z,10.40
2018-11-04T18:30:54.048Z,10.40
2018-11-04T18:33:24.556Z,10.50
2018-11-04T18:35:53.141Z,10.50
2018-11-04T18:38:24.401Z,10.50
2018-11-04T18:40:54.640Z,10.50
2018-11-04T18:43:26.011Z,10.50
2018-11-04T18:45:57.388Z,10.50
2018-11-04T18:48:26.481Z,10.50
2018-11-04T18:50:55.108Z,10.50
2018-11-04T18:53:23.833Z,10.50
2018-11-04T18:55:52.452Z,10.50
2018-11-04T18:58:21.049Z,10.50
2018-11-04T19:00:49.641Z,10.60
2018-11-04T19:03:18.274Z,10.60
2018-11-04T19:05:46.099Z,10.60
2018-11-04T19:08:14.744Z,10.60
2018-11-04T19:10:44.560Z,10.60
2018-11-04T19:13:13.158Z,10.60
2018-11-04T19:15:41.772Z,10.60
2018-11-04T19:18:11.817Z,10.60
2018-11-04T19:20:41.145Z,10.60
2018-11-04T19:23:11.194Z,10.60
2018-11-04T19:25:40.634Z,10.70
2018-11-04T19:28:09.262Z,10.70
2018-11-04T19:30:38.002Z,10.70
2018-11-04T19:33:06.596Z,10.70
2018-11-04T19:35:35.147Z,10.70
2018-11-04T19:38:05.142Z,10.80
2018-11-04T19:40:33.767Z,10.80
2018-11-04T19:43:01.725Z,10.80
2018-11-04T19:45:29.491Z,10.80
2018-11-04T19:47:57.284Z,10.90
2018-11-04T19:50:25.834Z,10.90
2018-11-04T19:52:54.452Z,10.90
2018-11-04T19:55:22.374Z,10.90
2018-11-04T19:57:51.620Z,11.00
2018-11-04T20:00:19.492Z,11.00
2018-11-04T20:02:47.338Z,11.10
2018-11-04T20:05:15.223Z,11.10
2018-11-04T20:07:43.046Z,11.10
2018-11-04T20:10:14.861Z,11.10
2018-11-04T20:12:49.594Z,11.20
2018-11-04T20:15:17.348Z,11.20
2018-11-04T20:17:47.014Z,11.20
2018-11-04T20:20:19.683Z,11.20
2018-11-04T20:22:47.514Z,11.20
2018-11-04T20:25:20.748Z,11.30
2018-11-04T20:27:48.586Z,11.30
2018-11-04T20:30:17.998Z,11.30
2018-11-04T20:32:51.333Z,11.30
2018-11-04T20:35:19.604Z,11.30
2018-11-04T20:37:47.501Z,11.30
2018-11-04T20:40:22.033Z,11.30
2018-11-04T20:42:49.836Z,11.30
2018-11-04T20:45:17.728Z,11.40
2018-11-04T20:47:51.194Z,11.40
2018-11-04T20:50:24.245Z,11.30
2018-11-04T20:52:52.054Z,11.40
2018-11-04T20:55:19.999Z,11.40
2018-11-04T20:57:50.871Z,11.40
2018-11-04T21:00:18.619Z,11.40
2018-11-04T21:02:46.573Z,11.40
2018-11-04T21:05:14.355Z,11.40
2018-11-04T21:07:43.465Z,11.40
2018-11-04T21:10:12.520Z,11.40
2018-11-04T21:12:41.633Z,11.40
2018-11-04T21:15:10.236Z,11.40
2018-11-04T21:17:38.513Z,11.40
2018-11-04T21:20:06.343Z,11.40
2018-11-04T21:22:34.173Z,11.40
2018-11-04T21:25:02.022Z,11.40
2018-11-04T21:27:29.825Z,11.50
2018-11-04T21:29:57.803Z,11.40
2018-11-04T21:32:27.139Z,11.50
2018-11-04T21:34:55.424Z,11.50
2018-11-04T21:37:23.359Z,11.40
2018-11-04T21:39:51.278Z,11.50
2018-11-04T21:42:19.148Z,11.40
2018-11-04T21:44:46.933Z,11.50
2018-11-04T21:47:14.617Z,11.40
2018-11-04T21:49:42.382Z,11.40
2018-11-04T21:52:10.152Z,11.50
2018-11-04T21:54:38.286Z,11.50
2018-11-04T21:57:07.502Z,11.50
2018-11-04T21:59:37.147Z,11.50
2018-11-04T22:02:05.335Z,11.50
2018-11-04T22:04:33.175Z,11.40
2018-11-04T22:07:00.918Z,11.40
2018-11-04T22:09:28.803Z,11.40
2018-11-04T22:11:56.838Z,11.40
2018-11-04T22:14:24.535Z,11.40
2018-11-04T22:16:53.007Z,11.40
2018-11-04T22:19:20.781Z,11.40
2018-11-04T22:21:49.989Z,11.40
2018-11-04T22:24:17.763Z,11.30
2018-11-04T22:26:45.522Z,11.30
2018-11-04T22:29:13.316Z,11.30
2018-11-04T22:31:41.098Z,11.30
2018-11-04T22:34:09.280Z,11.20
2018-11-04T22:36:37.105Z,11.20
2018-11-04T22:39:07.001Z,11.20
2018-11-04T22:41:34.787Z,11.10
2018-11-04T22:44:02.534Z,11.10
2018-11-04T22:46:30.318Z,11.10
2018-11-04T22:48:58.060Z,11.00
2018-11-04T22:51:26.401Z,11.00
2018-11-04T22:53:54.288Z,11.00
2018-11-04T22:56:22.149Z,11.00
2018-11-04T22:58:51.768Z,11.00
2018-11-04T23:01:19.601Z,11.00
2018-11-04T23:03:47.431Z,11.00
2018-11-04T23:06:15.294Z,11.00
2018-11-04T23:08:44.560Z,10.90
2018-11-04T23:11:12.291Z,10.90
2018-11-04T23:13:40.131Z,10.90
2018-11-04T23:16:08.446Z,10.90
2018-11-04T23:18:36.291Z,10.90
2018-11-04T23:21:04.494Z,10.80
2018-11-04T23:23:32.730Z,10.80
2018-11-04T23:26:00.453Z,10.70
2018-11-04T23:28:28.255Z,10.70
2018-11-04T23:30:57.477Z,10.70
2018-11-04T23:33:25.349Z,10.60
2018-11-04T23:35:53.113Z,10.60
2018-11-04T23:38:20.901Z,10.50
2018-11-04T23:40:48.788Z,10.50
2018-11-04T23:43:16.620Z,10.50
2018-11-04T23:45:44.456Z,10.50
2018-11-04T23:48:12.263Z,10.50
2018-11-04T23:50:40.044Z,10.50
2018-11-04T23:53:07.798Z,10.40
2018-11-04T23:55:36.973Z,10.40
2018-11-04T23:58:06.231Z,10.40
